Time;durP1;ratioP1;P1;durP2;ratioP2;P2;SDS_P1;SDS_P2;PMS_P1;PMS_P2;Temp;Humidity;BMP_temperature;BMP_pressure;BME280_temperature;BME280_humidity;BME280_pressure;Samples;Min_cycle;Max_cycle;Signal;HPM_P1;HPM_P2
2023/06/27 00:01:43;;;;;;;1.42;1.15;;;;;;;19.13;100.00;99633.53;6100111;23;20027;-90
2023/06/27 00:04:10;;;;;;;0.47;0.47;;;;;;;19.14;100.00;99640.69;6099456;23;20021;-89
2023/06/27 00:06:40;;;;;;;0.85;0.60;;;;;;;19.31;100.00;99655.56;6124742;23;20017;-89
2023/06/27 00:09:09;;;;;;;0.10;0.10;;;;;;;19.35;100.00;99663.75;6100928;23;20009;-89
2023/06/27 00:11:37;;;;;;;1.05;0.95;;;;;;;19.33;100.00;99658.63;6100288;23;20114;-90
2023/06/27 00:14:04;;;;;;;0.25;0.22;;;;;;;19.23;100.00;99648.13;6100510;23;20040;-89
2023/06/27 00:16:33;;;;;;;1.08;0.98;;;;;;;19.21;100.00;99650.69;6076600;23;20028;-89
2023/06/27 00:19:03;;;;;;;1.85;1.02;;;;;;;19.15;100.00;99636.59;6099716;23;20057;-89
2023/06/27 00:21:30;;;;;;;0.55;0.50;;;;;;;18.96;100.00;99641.91;6101194;23;20045;-89
2023/06/27 00:23:56;;;;;;;1.25;1.15;;;;;;;18.87;100.00;99644.16;6111994;23;20072;-89
2023/06/27 00:26:22;;;;;;;0.57;0.43;;;;;;;18.82;100.00;99642.06;6047171;23;20037;-90
2023/06/27 00:28:47;;;;;;;0.17;0.17;;;;;;;18.79;100.00;99643.09;6071605;23;20459;-90
2023/06/27 00:31:13;;;;;;;0.77;0.77;;;;;;;18.81;100.00;99641.31;6095563;23;20016;-90
2023/06/27 00:33:39;;;;;;;0.47;0.47;;;;;;;18.72;100.00;99623.91;6071544;23;20029;-89
2023/06/27 00:36:06;;;;;;;1.38;1.27;;;;;;;18.77;100.00;99631.56;6071069;23;20078;-89
2023/06/27 00:38:33;;;;;;;0.47;0.47;;;;;;;18.70;100.00;99632.81;6071615;23;20022;-89
2023/06/27 00:41:01;;;;;;;0.85;0.65;;;;;;;18.57;100.00;99616.41;6070361;23;20088;-89
2023/06/27 00:43:30;;;;;;;0.38;0.38;;;;;;;18.61;100.00;99611.31;6070427;23;20136;-89
2023/06/27 00:45:56;;;;;;;1.13;0.65;;;;;;;18.68;100.00;99614.94;6046980;23;20037;-89
2023/06/27 00:48:22;;;;;;;1.02;0.70;;;;;;;18.55;100.00;99599.28;6071168;23;20014;-89
2023/06/27 00:50:52;;;;;;;0.77;0.60;;;;;;;18.69;100.00;99622.06;6070555;23;20029;-90
2023/06/27 00:53:17;;;;;;;0.30;0.30;;;;;;;18.66;100.00;99617.47;6094593;23;20052;-89
2023/06/27 00:55:43;;;;;;;0.50;0.50;;;;;;;18.71;100.00;99625.16;6094657;23;20005;-90
2023/06/27 00:58:10;;;;;;;1.15;0.95;;;;;;;18.74;100.00;99626.97;6070910;23;20021;-89
2023/06/27 01:06:14;;;;;;;1.55;1.25;;;;;;;18.63;100.00;99597.56;6175957;23;20031;-92
2023/06/27 01:09:08;;;;;;;0.47;0.40;;;;;;;18.74;100.00;99612.91;6127937;23;20017;-91
2023/06/27 01:11:44;;;;;;;3.15;0.88;;;;;;;18.78;100.00;99617.03;6166509;23;20499;-91
2023/06/27 01:14:10;;;;;;;1.60;1.40;;;;;;;18.71;100.00;99619.53;6129965;23;20077;-91
2023/06/27 01:16:37;;;;;;;0.82;0.82;;;;;;;18.68;100.00;99626.19;6154926;23;20024;-91
2023/06/27 01:19:04;;;;;;;0.60;0.60;;;;;;;18.69;100.00;99628.47;6130934;23;20546;-90
2023/06/27 01:21:31;;;;;;;0.50;0.50;;;;;;;18.73;100.00;99633.84;6130643;23;20021;-90
2023/06/27 01:23:58;;;;;;;2.90;0.70;;;;;;;18.71;100.00;99625.94;6130502;23;20530;-91
2023/06/27 01:26:24;;;;;;;1.15;0.50;;;;;;;18.69;100.00;99614.41;6131675;23;20445;-92
2023/06/27 01:28:50;;;;;;;1.05;1.00;;;;;;;18.69;100.00;99610.84;6155220;23;20009;-91
2023/06/27 01:31:44;;;;;;;1.50;0.77;;;;;;;18.68;100.00;99615.72;6130812;23;20021;-91
2023/06/27 01:34:15;;;;;;;0.30;0.30;;;;;;;18.68;100.00;99612.13;6131919;23;20521;-90
2023/06/27 01:36:48;;;;;;;0.70;0.50;;;;;;;18.60;100.00;99606.97;6154959;23;20417;-92
2023/06/27 01:39:31;;;;;;;4.40;1.08;;;;;;;18.56;100.00;99614.09;6131374;23;20013;-91
2023/06/27 01:42:03;;;;;;;1.10;0.60;;;;;;;18.41;100.00;99603.00;6130605;23;20031;-90
2023/06/27 01:44:29;;;;;;;1.02;0.90;;;;;;;18.38;100.00;99606.03;6131235;23;20016;-91
2023/06/27 01:46:55;;;;;;;0.30;0.30;;;;;;;18.31;100.00;99598.09;6130737;23;20023;-91
2023/06/27 01:49:22;;;;;;;0.70;0.63;;;;;;;18.21;100.00;99593.94;6155711;23;20104;-90
2023/06/27 01:51:47;;;;;;;0.50;0.30;;;;;;;18.05;100.00;99592.53;6154550;23;20028;-90
2023/06/27 01:54:13;;;;;;;0.75;0.73;;;;;;;17.95;100.00;99582.78;6180145;23;20386;-91
2023/06/27 01:56:39;;;;;;;0.57;0.50;;;;;;;17.99;100.00;99574.91;6154870;23;20096;-92
2023/06/27 01:59:05;;;;;;;0.30;0.30;;;;;;;17.99;100.00;99588.94;6130703;23;20488;-90
2023/06/27 02:01:31;;;;;;;1.08;0.82;;;;;;;17.97;100.00;99583.03;6150321;23;20022;-90
2023/06/27 02:03:56;;;;;;;1.58;1.00;;;;;;;17.99;100.00;99600.16;6125135;23;20139;-92
2023/06/27 02:06:22;;;;;;;1.55;0.68;;;;;;;17.96;100.00;99584.31;6125474;23;20384;-91
2023/06/27 02:08:48;;;;;;;0.68;0.68;;;;;;;17.97;100.00;99586.63;6101248;23;20078;-91
2023/06/27 02:11:14;;;;;;;1.13;1.02;;;;;;;17.98;100.00;99581.78;6125977;23;20013;-91
2023/06/27 02:13:41;;;;;;;0.50;0.50;;;;;;;18.00;100.00;99585.63;6124702;23;20021;-91
2023/06/27 02:16:07;;;;;;;1.05;0.95;;;;;;;18.10;100.00;99586.22;6126077;23;20100;-91
2023/06/27 02:18:32;;;;;;;0.43;0.43;;;;;;;18.14;100.00;99595.94;6125556;23;20031;-91
2023/06/27 02:20:58;;;;;;;0.15;0.15;;;;;;;18.15;100.00;99591.09;6100283;23;20437;-92
2023/06/27 02:23:26;;;;;;;0.47;0.40;;;;;;;18.23;100.00;99591.41;6126097;23;20018;-91
2023/06/27 02:25:52;;;;;;;1.27;1.02;;;;;;;18.28;100.00;99597.03;6125446;23;20023;-92
2023/06/27 02:28:18;;;;;;;1.23;1.13;;;;;;;18.31;100.00;99598.88;6124696;23;20068;-92
2023/06/27 02:30:44;;;;;;;1.33;0.65;;;;;;;18.36;100.00;99603.72;6125528;23;20022;-90
2023/06/27 02:33:09;;;;;;;1.10;1.08;;;;;;;18.39;100.00;99594.31;6125442;23;20160;-91
2023/06/27 02:35:35;;;;;;;1.65;1.40;;;;;;;18.50;100.00;99605.63;6149592;23;20064;-92
2023/06/27 02:38:01;;;;;;;1.52;0.80;;;;;;;18.55;100.00;99613.34;6125277;23;20014;-92
2023/06/27 02:40:28;;;;;;;0.43;0.43;;;;;;;18.62;100.00;99612.84;6150551;23;20031;-91
2023/06/27 02:42:54;;;;;;;0.82;0.82;;;;;;;18.71;100.00;99619.53;6124431;23;20017;-92
2023/06/27 02:45:21;;;;;;;1.17;1.08;;;;;;;18.68;100.00;99612.91;6125844;23;20025;-90
2023/06/27 02:47:46;;;;;;;0.60;0.60;;;;;;;18.63;100.00;99622.06;6125295;23;20512;-92
2023/06/27 02:50:12;;;;;;;2.72;1.45;;;;;;;18.61;100.00;99616.94;6125008;23;20392;-91
2023/06/27 02:52:37;;;;;;;0.75;0.55;;;;;;;18.62;100.00;99607.25;6124825;23;20420;-91
2023/06/27 02:55:03;;;;;;;0.60;0.52;;;;;;;18.57;100.00;99615.63;6125324;23;20104;-90
2023/06/27 02:57:30;;;;;;;0.70;0.68;;;;;;;18.52;100.00;99611.50;6100662;23;20065;-93
2023/06/27 02:59:56;;;;;;;1.27;1.08;;;;;;;18.49;100.00;99597.69;6125481;23;20429;-92
2023/06/27 03:02:22;;;;;;;0.35;0.35;;;;;;;18.35;100.00;99599.41;6125251;23;20041;-91
2023/06/27 03:04:48;;;;;;;0.40;0.40;;;;;;;18.43;100.00;99603.28;6076546;23;20025;-92
2023/06/27 03:07:14;;;;;;;0.40;0.35;;;;;;;18.48;100.00;99590.53;6124522;23;20092;-93
2023/06/27 03:09:40;;;;;;;2.42;1.30;;;;;;;18.52;100.00;99608.69;6125861;23;20052;-90
2023/06/27 03:12:06;;;;;;;0.95;0.68;;;;;;;18.52;100.00;99611.50;6125043;23;20429;-90
2023/06/27 03:14:32;;;;;;;0.85;0.70;;;;;;;18.55;100.00;99630.19;6126083;23;20017;-91
2023/06/27 03:16:59;;;;;;;2.55;1.55;;;;;;;18.51;100.00;99618.38;6125085;23;20112;-91
2023/06/27 03:19:24;;;;;;;1.15;1.02;;;;;;;18.67;100.00;99630.25;6100987;23;20092;-92
2023/06/27 03:21:50;;;;;;;0.10;0.10;;;;;;;18.80;100.00;99617.31;6124350;23;20135;-91
2023/06/27 03:24:16;;;;;;;1.10;0.47;;;;;;;18.89;100.00;99614.25;6125355;23;20573;-92
2023/06/27 03:26:45;;;;;;;1.75;1.30;;;;;;;19.02;100.00;99608.19;6125501;23;20028;-91
2023/06/27 03:29:11;;;;;;;0.65;0.65;;;;;;;19.16;100.00;99612.06;6125530;23;20096;-91
2023/06/27 03:31:37;;;;;;;0.60;0.60;;;;;;;19.20;100.00;99616.19;6125543;23;20005;-92
2023/06/27 03:34:04;;;;;;;0.75;0.73;;;;;;;19.14;100.00;99611.81;6125511;23;20009;-91
2023/06/27 03:36:33;;;;;;;2.53;1.48;;;;;;;19.16;100.00;99621.28;6100327;23;20021;-91
2023/06/27 03:38:59;;;;;;;0.60;0.60;;;;;;;19.14;100.00;99623.81;6124831;23;20025;-91
2023/06/27 03:41:25;;;;;;;5.28;1.20;;;;;;;19.06;100.00;99628.38;6124992;23;20063;-92
2023/06/27 03:43:51;;;;;;;1.45;1.20;;;;;;;19.12;100.00;99632.00;6124895;23;20497;-92
2023/06/27 03:46:17;;;;;;;0.80;0.75;;;;;;;19.18;100.00;99620.75;6125524;23;20017;-92
2023/06/27 03:48:43;;;;;;;1.40;1.10;;;;;;;19.13;100.00;99622.28;6100655;23;20409;-92
2023/06/27 03:51:09;;;;;;;0.68;0.68;;;;;;;19.08;100.00;99631.47;6124094;23;20013;-93
2023/06/27 03:53:35;;;;;;;1.60;0.63;;;;;;;19.08;100.00;99626.63;6125340;23;20006;-93
2023/06/27 03:56:02;;;;;;;0.32;0.32;;;;;;;19.12;100.00;99625.59;6100665;23;20017;-92
2023/06/27 03:58:29;;;;;;;2.17;1.23;;;;;;;19.13;100.00;99622.28;6124930;23;20022;-92
2023/06/27 04:00:55;;;;;;;3.00;0.77;;;;;;;19.17;100.00;99627.69;6124402;23;20018;-92
2023/06/27 04:03:21;;;;;;;0.38;0.38;;;;;;;19.22;100.00;99627.69;6149282;23;20024;-92
2023/06/27 04:05:47;;;;;;;0.22;0.20;;;;;;;19.33;100.00;99624.88;6123708;23;20366;-92
2023/06/27 04:08:13;;;;;;;0.57;0.57;;;;;;;19.41;100.00;99625.94;6125143;23;20484;-92
2023/06/27 04:10:42;;;;;;;0.95;0.70;;;;;;;19.51;100.00;99635.72;6125498;23;20029;-92
2023/06/27 04:13:09;;;;;;;0.93;0.73;;;;;;;19.60;100.00;99629.09;6124523;23;20446;-93
2023/06/27 04:15:39;;;;;;;0.47;0.47;;;;;;;19.69;100.00;99628.84;6124891;23;20009;-92
2023/06/27 04:18:08;;;;;;;;;;;;;;;19.72;100.00;99633.47;6126139;23;20022;-91
2023/06/27 04:20:34;;;;;;;1.55;1.30;;;;;;;19.72;100.00;99635.50;6124416;23;19916;-91
2023/06/27 04:22:59;;;;;;;1.58;1.33;;;;;;;19.69;100.00;99619.66;6124485;23;20287;-92
2023/06/27 04:25:29;;;;;;;0.40;0.40;;;;;;;19.75;100.00;99623.22;6125014;23;20446;-92
2023/06/27 04:27:55;;;;;;;0.57;0.57;;;;;;;19.82;100.00;99629.09;6099960;23;20024;-92
2023/06/27 04:30:21;;;;;;;0.30;0.30;;;;;;;19.89;100.00;99647.56;6125041;23;20041;-93
2023/06/27 04:32:48;;;;;;;7.72;1.80;;;;;;;19.89;100.00;99644.75;6124344;23;20017;-91
2023/06/27 04:35:16;;;;;;;0.50;0.50;;;;;;;19.89;100.00;99641.94;6124549;23;20104;-93
2023/06/27 04:37:42;;;;;;;1.38;1.02;;;;;;;19.89;100.00;99645.50;6124006;23;20010;-92
2023/06/27 04:40:10;;;;;;;0.38;0.30;;;;;;;19.94;100.00;99643.94;6125125;23;20449;-91
2023/06/27 04:42:37;;;;;;;1.10;1.00;;;;;;;19.99;100.00;99646.78;6124466;23;20070;-93
2023/06/27 04:45:03;;;;;;;0.35;0.35;;;;;;;20.09;100.00;99644.50;6124756;23;20016;-93
2023/06/27 04:47:28;;;;;;;1.00;0.68;;;;;;;20.19;100.00;99657.03;6124926;23;20025;-92
2023/06/27 04:49:54;;;;;;;0.90;0.77;;;;;;;20.28;100.00;99664.44;6125000;23;20013;-92
2023/06/27 04:52:19;;;;;;;0.50;0.50;;;;;;;20.31;100.00;99660.63;6125059;23;20092;-91
2023/06/27 04:54:50;;;;;;;1.20;1.10;;;;;;;20.32;100.00;99651.66;6126616;23;20040;-92
2023/06/27 04:57:16;;;;;;;0.90;0.73;;;;;;;20.48;100.00;99661.38;6126477;23;20013;-91
2023/06/27 04:59:43;;;;;;;2.00;1.83;;;;;;;20.52;100.00;99669.56;6102008;23;20101;-93
2023/06/27 05:02:08;;;;;;;0.80;0.75;;;;;;;20.56;100.00;99662.41;6126863;23;20016;-93
2023/06/27 05:04:34;;;;;;;0.40;0.40;;;;;;;20.60;100.00;99670.59;6126376;23;20021;-92
2023/06/27 05:07:00;;;;;;;1.33;1.15;;;;;;;20.65;100.00;99664.19;6125831;23;20026;-91
2023/06/27 05:09:26;;;;;;;0.52;0.52;;;;;;;20.68;100.00;99658.28;6126622;23;20014;-91
2023/06/27 05:11:51;;;;;;;1.25;1.13;;;;;;;20.67;100.00;99653.16;6126128;23;20010;-92
2023/06/27 05:14:17;;;;;;;1.10;1.02;;;;;;;20.81;100.00;99660.56;6126797;23;20021;-93
2023/06/27 05:16:43;;;;;;;2.28;0.88;;;;;;;20.91;100.00;99656.94;6126256;23;20012;-93
2023/06/27 05:19:08;;;;;;;1.48;1.38;;;;;;;21.13;100.00;99666.63;6126406;23;20014;-92
2023/06/27 05:21:34;;;;;;;2.00;1.60;;;;;;;21.35;100.00;99667.28;6101375;23;20013;-91
2023/06/27 05:24:00;;;;;;;1.40;1.33;;;;;;;21.54;100.00;99669.53;6125815;23;20025;-91
2023/06/27 05:26:25;;;;;;;1.00;0.85;;;;;;;21.60;100.00;99651.25;6101958;23;20005;-92
2023/06/27 05:28:51;;;;;;;1.50;1.10;;;;;;;21.77;100.00;99668.09;6125886;23;20400;-92
2023/06/27 05:31:17;;;;;;;0.50;0.15;;;;;;;21.81;100.00;99674.22;6101972;23;20017;-92
2023/06/27 05:33:42;;;;;;;1.17;0.85;;;;;;;21.86;100.00;99676.25;6126034;23;19997;-91
2023/06/27 05:36:08;;;;;;;1.30;0.90;;;;;;;21.99;100.00;99684.94;6101529;23;20107;-93
2023/06/27 05:38:33;;;;;;;1.58;1.48;;;;;;;22.00;100.00;99680.78;6126310;23;20069;-92
2023/06/27 05:40:59;;;;;;;0.77;0.40;;;;;;;22.08;100.00;99695.13;6126100;23;20391;-92
2023/06/27 05:43:24;;;;;;;1.40;1.30;;;;;;;22.10;100.00;99704.59;6125699;23;20017;-92
2023/06/27 05:45:50;;;;;;;20.58;2.00;;;;;;;22.11;100.00;99696.91;6125994;23;20044;-92
2023/06/27 05:48:16;;;;;;;2.97;2.38;;;;;;;22.12;100.00;99696.38;6125822;23;20017;-91
2023/06/27 05:50:42;;;;;;;1.42;1.10;;;;;;;22.21;100.00;99692.44;6125358;23;20018;-92
2023/06/27 05:53:08;;;;;;;1.25;0.80;;;;;;;22.42;100.00;99698.44;6125828;23;20013;-92
2023/06/27 05:55:33;;;;;;;1.05;0.77;;;;;;;22.63;100.00;99696.72;6126213;23;20030;-92
2023/06/27 05:57:59;;;;;;;1.75;1.65;;;;;;;22.93;100.00;99691.78;6100839;23;20017;-91
2023/06/27 06:00:25;;;;;;;1.75;0.88;;;;;;;23.25;100.00;99692.72;6126032;23;20095;-92
2023/06/27 06:02:51;;;;;;;1.38;0.88;;;;;;;23.58;100.00;99696.44;6124862;23;20013;-94
2023/06/27 06:05:17;;;;;;;3.40;2.60;;;;;;;23.79;100.00;99691.00;6101026;23;20028;-93
2023/06/27 06:07:43;;;;;;;1.88;1.05;;;;;;;23.85;100.00;99694.53;6125859;23;20016;-92
2023/06/27 06:10:10;;;;;;;1.95;1.02;;;;;;;23.96;100.00;99706.47;6126058;23;20438;-92
2023/06/27 06:12:37;;;;;;;1.80;1.02;;;;;;;23.98;100.00;99698.19;6125836;23;20018;-92
2023/06/27 06:15:03;;;;;;;1.30;1.13;;;;;;;23.95;100.00;99704.94;6126286;23;20013;-93
2023/06/27 06:17:28;;;;;;;2.05;1.17;;;;;;;23.87;100.00;99709.69;6126134;23;20004;-93
2023/06/27 06:19:54;;;;;;;0.88;0.88;;;;;;;23.80;100.00;99707.47;6126011;23;20014;-92
2023/06/27 06:22:20;;;;;;;1.83;1.35;;;;;;;23.78;100.00;99698.00;6124805;23;20725;-92
2023/06/27 06:24:46;;;;;;;1.60;0.90;;;;;;;24.05;100.00;99702.47;6125825;23;20048;-91
2023/06/27 06:27:11;;;;;;;1.23;1.13;;;;;;;24.33;96.48;99702.06;6125559;23;20149;-92
2023/06/27 06:29:37;;;;;;;1.05;1.05;;;;;;;24.58;95.72;99709.13;6126246;23;20036;-92
2023/06/27 06:32:03;;;;;;;2.42;1.38;;;;;;;24.48;92.29;99699.47;6125358;23;20432;-92
2023/06/27 06:34:28;;;;;;;1.48;1.38;;;;;;;24.49;94.21;99710.28;6125929;23;20010;-93
2023/06/27 06:36:54;;;;;;;1.55;1.20;;;;;;;24.43;94.86;99708.84;6125056;23;20010;-93
2023/06/27 06:39:20;;;;;;;2.80;1.45;;;;;;;24.32;92.85;99692.78;6125684;23;20701;-93
2023/06/27 06:41:46;;;;;;;0.77;0.73;;;;;;;24.34;93.49;99712.88;6125274;23;20112;-93
2023/06/27 06:44:12;;;;;;;1.05;1.00;;;;;;;24.20;96.08;99699.16;6125832;23;20018;-92
2023/06/27 06:46:38;;;;;;;0.65;0.65;;;;;;;24.24;95.57;99703.22;6125616;23;20183;-94
2023/06/27 06:49:04;;;;;;;0.98;0.85;;;;;;;24.47;97.03;99709.28;6125514;23;20021;-93
2023/06/27 06:51:29;;;;;;;4.00;1.42;;;;;;;24.72;95.89;99707.81;6124989;23;20354;-92
2023/06/27 06:53:55;;;;;;;0.65;0.65;;;;;;;25.00;90.77;99699.59;6125689;23;20009;-92
2023/06/27 06:56:21;;;;;;;2.08;1.15;;;;;;;25.28;89.00;99713.22;6125715;23;20020;-92
2023/06/27 06:58:46;;;;;;;1.25;1.15;;;;;;;25.42;85.21;99717.59;6124961;23;20013;-92
2023/06/27 07:01:12;;;;;;;1.95;1.80;;;;;;;25.55;83.08;99721.75;6125334;23;20401;-92
2023/06/27 07:03:38;;;;;;;1.05;0.90;;;;;;;25.56;83.12;99715.50;6125636;23;20013;-93
2023/06/27 07:06:03;;;;;;;0.70;0.70;;;;;;;25.45;81.63;99710.03;6124544;23;20017;-93
2023/06/27 07:08:29;;;;;;;1.33;1.08;;;;;;;25.48;79.71;99731.66;6125720;23;20009;-92
2023/06/27 07:10:55;;;;;;;1.27;1.02;;;;;;;25.44;82.13;99722.69;6125470;23;20084;-93
2023/06/27 07:13:21;;;;;;;1.20;1.10;;;;;;;25.79;78.91;99722.25;6125001;23;20028;-92
2023/06/27 07:15:46;;;;;;;0.47;0.47;;;;;;;26.03;75.89;99723.25;6125332;23;20073;-93
2023/06/27 07:18:12;;;;;;;1.60;1.05;;;;;;;26.09;72.52;99724.66;6125443;23;20017;-94
2023/06/27 07:20:37;;;;;;;2.00;1.80;;;;;;;26.15;72.59;99716.78;6125060;23;20006;-93
2023/06/27 07:23:03;;;;;;;2.13;1.45;;;;;;;26.52;69.78;99712.78;6125013;23;20204;-93
2023/06/27 07:25:29;;;;;;;1.88;1.25;;;;;;;26.74;63.54;99705.75;6125537;23;20061;-93
2023/06/27 07:27:55;;;;;;;0.80;0.68;;;;;;;26.89;62.70;99715.19;6149409;23;20005;-93
2023/06/27 07:30:20;;;;;;;1.38;1.00;;;;;;;26.98;59.54;99708.22;6125382;23;20017;-92
2023/06/27 07:32:46;;;;;;;2.40;1.02;;;;;;;26.89;58.53;99729.41;6125555;23;20006;-93
2023/06/27 07:35:11;;;;;;;1.27;1.17;;;;;;;26.64;56.86;99719.72;6125128;23;20045;-92
2023/06/27 07:37:37;;;;;;;1.38;1.17;;;;;;;26.42;59.10;99731.66;6149509;23;20013;-92
2023/06/27 07:40:04;;;;;;;1.45;1.00;;;;;;;26.35;61.44;99715.28;6126449;23;20005;-94
2023/06/27 07:42:30;;;;;;;1.50;1.40;;;;;;;26.31;57.55;99720.56;6100993;23;20014;-92
2023/06/27 07:44:55;;;;;;;1.27;1.17;;;;;;;26.03;58.09;99720.44;6125227;23;20032;-93
2023/06/27 07:47:21;;;;;;;0.95;0.95;;;;;;;26.05;60.47;99715.72;6125263;23;20023;-93
2023/06/27 07:49:46;;;;;;;0.57;0.57;;;;;;;25.97;59.84;99714.84;6101153;23;20014;-94
2023/06/27 07:52:12;;;;;;;0.98;0.65;;;;;;;25.87;61.75;99733.69;6124444;23;20040;-93
2023/06/27 07:54:38;;;;;;;0.98;0.85;;;;;;;25.66;64.40;99742.16;6149917;23;20028;-93
2023/06/27 07:57:04;;;;;;;0.90;0.60;;;;;;;25.45;69.63;99744.88;6149301;23;20013;-92
2023/06/27 07:59:30;;;;;;;0.65;0.65;;;;;;;25.24;74.31;99751.75;6101011;23;20092;-93
2023/06/27 08:01:55;;;;;;;1.95;1.67;;;;;;;24.86;72.16;99757.63;6100047;23;20037;-93
2023/06/27 08:04:21;;;;;;;1.77;1.48;;;;;;;24.85;71.21;99761.00;6124905;23;20020;-93
2023/06/27 08:06:47;;;;;;;1.08;0.93;;;;;;;24.80;70.17;99765.44;6100040;23;20028;-93
2023/06/27 08:09:12;;;;;;;1.50;1.02;;;;;;;24.66;69.45;99760.28;6149941;23;20041;-93
2023/06/27 08:11:38;;;;;;;0.57;0.57;;;;;;;24.54;69.60;99783.16;6124190;23;20096;-92
2023/06/27 08:14:04;;;;;;;2.55;1.20;;;;;;;24.38;70.21;99777.75;6125194;23;20045;-92
2023/06/27 08:16:29;;;;;;;1.45;1.23;;;;;;;24.25;70.61;99780.50;6125216;23;20559;-93
2023/06/27 08:18:55;;;;;;;1.25;1.15;;;;;;;24.03;75.18;99795.72;6124854;23;20040;-92
2023/06/27 08:21:21;;;;;;;1.60;1.48;;;;;;;23.88;74.94;99784.88;6124713;23;20017;-93
2023/06/27 08:23:46;;;;;;;3.35;0.90;;;;;;;23.59;80.44;99769.53;6149056;23;20114;-92
2023/06/27 08:26:16;;;;;;;1.48;1.27;;;;;;;23.65;83.98;99770.25;6149954;23;20006;-91
2023/06/27 08:28:42;;;;;;;2.00;0.98;;;;;;;23.50;91.79;99755.72;6175669;23;20020;-91
2023/06/27 08:31:08;;;;;;;1.75;0.95;;;;;;;23.45;93.40;99758.66;6127346;23;20028;-91
2023/06/27 08:33:33;;;;;;;0.85;0.57;;;;;;;23.28;96.73;99755.97;6102632;23;20009;-93
2023/06/27 08:35:59;;;;;;;1.65;1.55;;;;;;;23.18;94.72;99758.38;6126210;23;20025;-91
2023/06/27 08:38:24;;;;;;;0.85;0.82;;;;;;;23.12;94.30;99748.44;6151727;23;20318;-91
2023/06/27 08:40:54;;;;;;;1.52;1.25;;;;;;;23.28;92.12;99766.53;6102645;23;20036;-93
2023/06/27 08:43:20;;;;;;;0.77;0.77;;;;;;;23.25;89.23;99769.13;6151083;23;20019;-92
2023/06/27 08:45:51;;;;;;;1.63;1.42;;;;;;;23.24;88.20;99761.16;6126532;23;20018;-93
2023/06/27 08:48:17;;;;;;;0.75;0.75;;;;;;;23.19;87.98;99782.56;6127200;23;20323;-93
2023/06/27 08:50:43;;;;;;;1.48;0.73;;;;;;;23.13;89.10;99769.78;6126312;23;20009;-92
2023/06/27 08:53:14;;;;;;;3.03;1.88;;;;;;;23.21;88.09;99774.31;6127285;23;20018;-92
2023/06/27 08:55:43;;;;;;;0.93;0.93;;;;;;;23.24;89.24;99776.09;6127266;23;20028;-93
2023/06/27 08:58:11;;;;;;;0.73;0.73;;;;;;;23.22;89.18;99778.66;6151012;23;20014;-92
2023/06/27 09:00:37;;;;;;;1.08;0.75;;;;;;;23.21;89.21;99773.56;6151374;23;20072;-92
2023/06/27 09:03:04;;;;;;;1.48;0.98;;;;;;;23.20;89.37;99778.44;6102215;23;20056;-92
2023/06/27 09:05:32;;;;;;;0.90;0.88;;;;;;;23.18;88.06;99791.56;6150507;23;20469;-93
2023/06/27 09:07:57;;;;;;;1.10;0.95;;;;;;;23.16;88.51;99799.84;6126457;23;20100;-94
2023/06/27 09:10:23;;;;;;;0.68;0.45;;;;;;;23.16;87.44;99806.28;6151167;23;20021;-92
2023/06/27 09:12:50;;;;;;;0.82;0.82;;;;;;;23.22;87.87;99821.13;6101669;23;20016;-93
2023/06/27 09:15:15;;;;;;;1.55;0.60;;;;;;;23.12;88.63;99811.47;6126627;23;20426;-93
2023/06/27 09:17:41;;;;;;;1.33;1.25;;;;;;;23.10;88.38;99808.38;6126295;23;20017;-92
2023/06/27 09:20:07;;;;;;;2.42;0.82;;;;;;;23.08;88.63;99805.31;6127165;23;20009;-93
2023/06/27 09:22:33;;;;;;;0.60;0.60;;;;;;;23.08;90.14;99808.16;6101649;23;20497;-92
2023/06/27 09:25:21;;;;;;;0.85;0.75;;;;;;;23.10;90.46;99802.72;6150691;23;20049;-92
2023/06/27 09:27:47;;;;;;;1.20;1.10;;;;;;;23.03;90.88;99811.03;6125614;23;20072;-93
2023/06/27 09:30:12;;;;;;;2.10;0.85;;;;;;;22.97;93.85;99815.97;6102198;23;20005;-92
2023/06/27 09:32:58;;;;;;;0.77;0.70;;;;;;;22.87;95.66;99835.34;6102002;23;20020;-93
2023/06/27 09:35:24;;;;;;;1.58;1.00;;;;;;;22.72;96.34;99840.59;6125595;23;20017;-91
2023/06/27 09:37:51;;;;;;;0.88;0.88;;;;;;;22.72;98.92;99858.34;6126120;23;20022;-93
2023/06/27 09:40:17;;;;;;;0.93;0.75;;;;;;;22.62;100.00;99859.91;6126356;23;20019;-91
2023/06/27 09:42:56;;;;;;;0.90;0.90;;;;;;;22.51;100.00;99873.34;6150119;23;20035;-91
2023/06/27 09:45:23;;;;;;;1.50;1.40;;;;;;;22.47;100.00;99887.00;6101631;23;20092;-92
2023/06/27 09:47:52;;;;;;;3.30;1.95;;;;;;;22.36;100.00;99875.75;6126288;23;20466;-92
2023/06/27 09:50:24;;;;;;;1.80;0.98;;;;;;;22.23;100.00;99877.13;6126243;23;20488;-91
2023/06/27 09:52:55;;;;;;;0.75;0.75;;;;;;;22.15;100.00;99872.53;6152232;23;20089;-90
2023/06/27 09:55:21;;;;;;;0.68;0.65;;;;;;;22.02;100.00;99875.16;6126520;23;20028;-90
2023/06/27 09:57:47;;;;;;;1.15;0.80;;;;;;;21.96;100.00;99894.94;6150284;23;20081;-89
2023/06/27 10:00:14;;;;;;;1.02;0.98;;;;;;;21.80;100.00;99904.19;6150473;23;20036;-90
2023/06/27 10:02:41;;;;;;;1.83;1.60;;;;;;;21.70;100.00;99894.47;6150446;23;20018;-90
2023/06/27 10:05:08;;;;;;;1.25;0.85;;;;;;;21.65;100.00;99878.31;6126279;23;20092;-90
2023/06/27 10:07:34;;;;;;;2.28;1.52;;;;;;;21.58;100.00;99876.81;6125728;23;20104;-89
2023/06/27 10:10:00;;;;;;;1.45;1.25;;;;;;;21.53;100.00;99865.53;6125676;23;20327;-90
2023/06/27 10:12:26;;;;;;;1.23;0.95;;;;;;;21.40;100.00;99868.88;6150196;23;20033;-89
2023/06/27 10:14:52;;;;;;;3.08;0.77;;;;;;;21.35;100.00;99864.03;6150152;23;20013;-89
2023/06/27 10:17:21;;;;;;;1.00;0.75;;;;;;;21.40;100.00;99860.41;6150283;23;20013;-89
2023/06/27 10:19:47;;;;;;;0.73;0.73;;;;;;;21.34;100.00;99854.81;6125602;23;20013;-89
2023/06/27 10:22:17;;;;;;;1.60;0.82;;;;;;;21.28;100.00;99848.38;6124932;23;20156;-90
2023/06/27 10:24:45;;;;;;;1.10;0.90;;;;;;;21.27;100.00;99846.84;6101052;23;20038;-90
2023/06/27 10:27:13;;;;;;;1.35;1.17;;;;;;;21.27;100.00;99860.94;6125619;23;20025;-90
2023/06/27 10:29:42;;;;;;;0.52;0.52;;;;;;;21.26;100.00;99872.75;6150257;23;20009;-90
2023/06/27 10:32:08;;;;;;;2.17;1.58;;;;;;;21.21;100.00;99865.84;6125924;23;20437;-89
2023/06/27 10:34:41;;;;;;;1.00;0.90;;;;;;;21.29;100.00;99869.69;6150406;23;20504;-90
2023/06/27 10:37:11;;;;;;;;;;;;;;;21.33;100.00;99870.19;6125594;23;20097;-89
2023/06/27 10:39:38;;;;;;;1.23;1.00;;;;;;;21.35;100.00;99858.41;6126262;23;19912;-90
2023/06/27 10:42:03;;;;;;;1.05;0.95;;;;;;;21.43;100.00;99875.56;6124940;23;20016;-91
2023/06/27 10:44:30;;;;;;;0.60;0.60;;;;;;;21.43;100.00;99869.91;6125437;23;20017;-92
2023/06/27 10:47:15;;;;;;;0.93;0.77;;;;;;;21.48;100.00;99894.50;6100882;23;20009;-91
2023/06/27 10:49:45;;;;;;;1.08;0.65;;;;;;;21.50;100.00;99887.09;6109284;23;20032;-92
2023/06/27 10:52:17;;;;;;;1.15;0.75;;;;;;;21.53;100.00;99882.47;6124911;23;20021;-92
2023/06/27 10:54:43;;;;;;;1.08;0.85;;;;;;;21.53;100.00;99868.34;6149717;23;20447;-91
2023/06/27 10:57:08;;;;;;;1.65;1.25;;;;;;;21.56;100.00;99879.38;6125177;23;20006;-92
2023/06/27 10:59:34;;;;;;;0.90;0.90;;;;;;;21.57;100.00;99886.56;6149951;23;20013;-90
2023/06/27 11:02:06;;;;;;;3.35;1.27;;;;;;;21.64;100.00;99883.19;6124444;23;20433;-90
2023/06/27 11:04:41;;;;;;;1.58;0.73;;;;;;;21.54;100.00;99879.13;6125811;23;20544;-91
2023/06/27 11:07:17;;;;;;;0.95;0.70;;;;;;;21.50;100.00;99875.03;6125004;23;20013;-91
2023/06/27 11:09:56;;;;;;;1.30;1.20;;;;;;;21.42;100.00;99896.59;6174348;23;20009;-91
2023/06/27 11:12:22;;;;;;;1.80;1.30;;;;;;;21.39;100.00;99909.69;6124929;23;20306;-91
2023/06/27 11:14:51;;;;;;;0.73;0.63;;;;;;;21.30;100.00;99919.19;6125023;23;20268;-92
2023/06/27 11:17:19;;;;;;;1.33;1.23;;;;;;;21.23;100.00;99919.69;6125330;23;20516;-92
2023/06/27 11:19:45;;;;;;;1.05;0.95;;;;;;;21.19;100.00;99918.41;6125129;23;20029;-91
2023/06/27 11:22:11;;;;;;;0.70;0.65;;;;;;;21.09;100.00;99909.41;6124409;23;20573;-91
2023/06/27 11:24:39;;;;;;;3.67;1.48;;;;;;;21.05;100.00;99897.63;6100711;23;20029;-90
2023/06/27 11:27:06;;;;;;;1.05;0.93;;;;;;;20.99;100.00;99888.38;6124732;23;20437;-90
2023/06/27 11:29:33;;;;;;;3.83;1.75;;;;;;;20.85;100.00;99880.94;6149851;23;20028;-89
2023/06/27 11:31:59;;;;;;;2.90;1.38;;;;;;;20.77;100.00;99888.38;6174023;23;20006;-90